Time;durP1;ratioP1;P1;durP2;ratioP2;P2;SDS_P1;SDS_P2;PMS_P1;PMS_P2;Temp;Humidity;BMP_temperature;BMP_pressure;BME280_temperature;BME280_humidity;BME280_pressure;Samples;Min_cycle;Max_cycle;Signal;HPM_P1;HPM_P2
2023/10/15 00:00:19;;;;;;;11.82;5.78;;;17.60;99.90;;;;;;5047477;28;20426;-75
2023/10/15 00:02:47;;;;;;;12.57;6.25;;;17.70;99.90;;;;;;5048882;28;20029;-74
2023/10/15 00:05:15;;;;;;;11.93;5.00;;;17.70;99.90;;;;;;5048733;28;20478;-76
2023/10/15 00:07:41;;;;;;;8.93;5.28;;;17.80;99.90;;;;;;5032696;28;20039;-74
2023/10/15 00:10:16;;;;;;;9.30;4.85;;;17.90;99.90;;;;;;5034903;28;20425;-75
2023/10/15 00:12:43;;;;;;;12.13;4.78;;;17.90;99.90;;;;;;5047366;28;20755;-74
2023/10/15 00:15:19;;;;;;;9.60;3.55;;;18.00;99.90;;;;;;5047538;28;20036;-75
2023/10/15 00:17:46;;;;;;;9.63;4.20;;;18.00;99.90;;;;;;5048412;28;20076;-74
2023/10/15 00:20:16;;;;;;;8.05;4.03;;;18.10;99.90;;;;;;5048542;28;20481;-75
2023/10/15 00:22:46;;;;;;;10.70;4.38;;;18.00;99.90;;;;;;5048877;28;20029;-75
2023/10/15 00:25:14;;;;;;;8.80;4.78;;;18.00;99.90;;;;;;5048653;28;20017;-75
2023/10/15 00:27:43;;;;;;;11.65;4.85;;;18.00;99.90;;;;;;5048704;28;20032;-74
2023/10/15 00:30:12;;;;;;;8.63;4.15;;;18.00;99.90;;;;;;5047120;28;20408;-75
2023/10/15 00:32:45;;;;;;;13.45;5.03;;;18.00;99.90;;;;;;5047100;28;20520;-75
2023/10/15 00:35:13;;;;;;;8.05;4.13;;;18.00;99.90;;;;;;5047390;28;20496;-74
2023/10/15 00:37:51;;;;;;;8.73;4.10;;;18.00;99.90;;;;;;5027897;28;20128;-75
2023/10/15 00:40:19;;;;;;;6.60;3.67;;;18.00;99.90;;;;;;5027256;28;20035;-75
2023/10/15 00:42:45;;;;;;;7.57;3.65;;;18.00;99.90;;;;;;5028409;28;20021;-75
2023/10/15 00:45:15;;;;;;;8.77;3.55;;;18.00;99.90;;;;;;5027398;28;20025;-75
2023/10/15 00:50:38;;;;;;;5.72;3.03;;;18.10;99.90;;;;;;5028705;28;20052;-75
2023/10/15 00:53:07;;;;;;;8.88;4.50;;;18.10;99.90;;;;;;5027073;28;20079;-75
2023/10/15 00:55:37;;;;;;;8.52;3.80;;;18.00;99.90;;;;;;5027138;28;20026;-75
2023/10/15 00:58:08;;;;;;;6.45;2.60;;;18.00;99.90;;;;;;5028420;28;20018;-76
2023/10/15 01:00:52;;;;;;;10.50;2.58;;;18.00;99.90;;;;;;5026943;28;20490;-75
2023/10/15 01:03:30;;;;;;;5.55;2.40;;;18.00;99.90;;;;;;5028154;28;20025;-75
2023/10/15 01:05:59;;;;;;;4.07;1.90;;;17.90;99.90;;;;;;5028274;28;20499;-75
2023/10/15 01:08:42;;;;;;;4.25;2.38;;;17.90;99.90;;;;;;5026956;28;20041;-74
2023/10/15 01:11:18;;;;;;;5.95;1.70;;;17.80;99.90;;;;;;5036350;28;20025;-75
2023/10/15 01:13:44;;;;;;;4.20;1.38;;;17.80;99.90;;;;;;5028361;28;20100;-74
2023/10/15 01:16:13;;;;;;;3.65;1.00;;;17.80;99.90;;;;;;5027071;28;20032;-75
2023/10/15 01:18:39;;;;;;;7.32;1.33;;;17.70;99.90;;;;;;5027917;28;20054;-75
2023/10/15 01:21:09;;;;;;;5.28;1.83;;;17.60;99.90;;;;;;5026836;28;20025;-74
2023/10/15 01:26:14;;;;;;;8.20;1.90;;;17.40;99.90;;;;;;5051798;28;20752;-75
2023/10/15 01:28:42;;;;;;;6.78;2.45;;;17.30;99.90;;;;;;5050072;28;20025;-74
2023/10/15 01:31:08;;;;;;;4.60;2.08;;;17.20;99.90;;;;;;5051355;28;20043;-75
2023/10/15 01:33:46;;;;;;;16.42;2.60;;;17.10;99.90;;;;;;5051633;28;20021;-74
2023/10/15 01:36:16;;;;;;;7.53;1.75;;;17.00;99.90;;;;;;5051773;28;20532;-74
2023/10/15 01:38:44;;;;;;;6.78;2.22;;;16.90;99.90;;;;;;5051468;28;20039;-75
2023/10/15 01:41:13;;;;;;;8.20;2.20;;;16.80;99.90;;;;;;5051504;28;20103;-74
2023/10/15 01:43:50;;;;;;;3.22;1.40;;;16.70;99.90;;;;;;5050168;28;20043;-74
2023/10/15 01:47:16;;;;;;;4.07;2.15;;;16.60;99.90;;;;;;5051388;28;20087;-75
2023/10/15 01:49:17;;;;;;;6.93;1.92;;;16.50;99.90;;;;;;5054630;28;20048;-74
2023/10/15 01:51:44;;;;;;;4.80;1.38;;;16.40;99.90;;;;;;5051289;28;20041;-74
2023/10/15 01:54:12;;;;;;;7.20;1.95;;;16.30;99.90;;;;;;5049763;28;20113;-75
2023/10/15 01:56:38;;;;;;;3.95;2.25;;;16.20;99.90;;;;;;5049724;28;20030;-74
2023/10/15 01:59:10;;;;;;;4.20;1.63;;;16.20;99.90;;;;;;5049679;28;20417;-74
2023/10/15 02:01:49;;;;;;;2.20;0.80;;;16.10;99.90;;;;;;5051214;28;20098;-74
2023/10/15 02:04:27;;;;;;;4.13;1.45;;;15.90;99.90;;;;;;5049604;28;20025;-74
2023/10/15 02:06:53;;;;;;;4.10;1.02;;;15.90;99.90;;;;;;5051332;28;20037;-75
2023/10/15 02:09:22;;;;;;;5.43;1.48;;;15.90;99.90;;;;;;5050652;28;20037;-75
2023/10/15 02:11:51;;;;;;;4.72;1.38;;;15.90;99.90;;;;;;5050802;28;20090;-74
2023/10/15 02:14:22;;;;;;;3.63;1.17;;;15.90;99.90;;;;;;5050762;28;20025;-75
2023/10/15 02:16:49;;;;;;;2.35;1.38;;;15.90;99.90;;;;;;5049320;28;20383;-75
2023/10/15 02:21:59;;;;;;;2.70;1.00;;;15.80;99.90;;;;;;5050668;28;20052;-74
2023/10/15 02:24:24;;;;;;;3.05;1.33;;;15.80;99.90;;;;;;5048162;28;20072;-75
2023/10/15 02:26:50;;;;;;;3.15;0.90;;;15.80;99.90;;;;;;5048897;28;20144;-74
2023/10/15 02:29:28;;;;;;;2.60;0.80;;;15.80;99.90;;;;;;5047416;28;20029;-74
2023/10/15 02:31:54;;;;;;;3.30;1.48;;;15.80;99.90;;;;;;5048856;28;20126;-75
2023/10/15 02:34:27;;;;;;;3.60;1.50;;;15.80;99.90;;;;;;5047172;28;20182;-75
2023/10/15 02:36:53;;;;;;;4.28;2.10;;;15.80;99.90;;;;;;5047639;28;20025;-74
2023/10/15 02:39:22;;;;;;;7.93;2.40;;;15.80;99.90;;;;;;5048243;28;20033;-74
2023/10/15 02:41:48;;;;;;;4.45;2.85;;;15.80;99.90;;;;;;5049064;28;20033;-73
2023/10/15 02:44:13;;;;;;;6.70;3.13;;;15.80;99.90;;;;;;5048901;28;20029;-74
2023/10/15 02:46:49;;;;;;;5.38;3.08;;;15.80;99.90;;;;;;5050223;28;20031;-75
2023/10/15 02:49:49;;;;;;;6.03;2.83;;;15.80;99.90;;;;;;5050102;28;20116;-75
2023/10/15 02:52:19;;;;;;;6.22;3.90;;;15.70;99.90;;;;;;5048859;28;20271;-74
2023/10/15 02:54:45;;;;;;;8.20;2.42;;;15.70;99.90;;;;;;5050052;28;20591;-75
2023/10/15 02:57:15;;;;;;;3.95;2.15;;;15.70;99.90;;;;;;5050118;28;20025;-74
2023/10/15 02:59:53;;;;;;;9.27;2.13;;;15.60;99.90;;;;;;5048604;28;20122;-75
2023/10/15 03:02:25;;;;;;;4.88;2.53;;;15.60;99.90;;;;;;5048592;28;20033;-74
2023/10/15 03:05:06;;;;;;;6.15;1.92;;;15.50;99.90;;;;;;5048708;28;20036;-75
2023/10/15 03:07:33;;;;;;;4.35;2.28;;;15.50;99.90;;;;;;5049768;28;20561;-75
2023/10/15 03:09:59;;;;;;;3.88;1.92;;;15.50;99.90;;;;;;5048330;28;20518;-73
2023/10/15 03:12:25;;;;;;;13.45;2.20;;;15.40;99.90;;;;;;5049774;28;20033;-74
2023/10/15 03:14:54;;;;;;;3.22;1.75;;;15.40;99.90;;;;;;5049699;28;20075;-75
2023/10/15 03:17:29;;;;;;;3.42;1.83;;;15.40;99.90;;;;;;5049467;28;20037;-75
2023/10/15 03:19:56;;;;;;;6.03;2.58;;;15.30;99.90;;;;;;5049645;28;20039;-74
2023/10/15 03:22:27;;;;;;;7.35;1.95;;;15.30;99.90;;;;;;5049445;28;20025;-74
2023/10/15 03:24:53;;;;;;;2.50;1.55;;;15.30;99.90;;;;;;5049557;28;20025;-74
2023/10/15 03:27:23;;;;;;;5.22;1.65;;;15.20;99.90;;;;;;5048078;28;20021;-74
2023/10/15 03:29:51;;;;;;;5.22;1.80;;;15.30;99.90;;;;;;5049216;28;20037;-74
2023/10/15 03:32:17;;;;;;;2.60;1.05;;;15.30;99.90;;;;;;5047968;28;20120;-74
2023/10/15 03:34:47;;;;;;;2.95;1.48;;;15.20;99.90;;;;;;5049269;28;20490;-74
2023/10/15 03:37:14;;;;;;;4.25;1.40;;;15.20;99.90;;;;;;5048066;28;20029;-74
2023/10/15 03:42:09;;;;;;;6.03;2.15;;;15.30;99.90;;;;;;5049415;28;20421;-74
2023/10/15 03:44:43;;;;;;;4.28;1.80;;;15.20;99.90;;;;;;5049204;28;20120;-74
2023/10/15 03:47:09;;;;;;;5.70;1.73;;;15.10;99.90;;;;;;5048536;28;20060;-74
2023/10/15 03:49:36;;;;;;;4.25;0.95;;;15.10;99.90;;;;;;5048889;28;20075;-74
2023/10/15 03:52:08;;;;;;;1.50;0.73;;;15.10;99.90;;;;;;5049142;28;20025;-74
2023/10/15 03:54:37;;;;;;;1.60;0.80;;;15.00;99.90;;;;;;5049045;28;20036;-75
2023/10/15 03:57:06;;;;;;;1.42;0.65;;;15.00;99.90;;;;;;5047669;28;20095;-75
2023/10/15 03:59:41;;;;;;;3.10;0.65;;;14.90;99.90;;;;;;5049010;28;20075;-74
2023/10/15 04:02:11;;;;;;;1.63;0.70;;;15.00;99.90;;;;;;5047606;28;20032;-74
2023/10/15 04:04:37;;;;;;;1.23;0.40;;;15.10;99.90;;;;;;5049016;28;20751;-75
2023/10/15 04:07:10;;;;;;;2.38;0.60;;;15.00;99.90;;;;;;5048877;28;20024;-74
2023/10/15 04:09:36;;;;;;;1.55;0.63;;;15.00;99.90;;;;;;5048734;28;20490;-74
2023/10/15 04:12:06;;;;;;;1.73;0.40;;;15.00;99.90;;;;;;5048715;28;20070;-74
2023/10/15 04:14:35;;;;;;;0.95;0.40;;;15.00;99.90;;;;;;5048780;28;20025;-75
2023/10/15 04:17:01;;;;;;;0.85;0.40;;;15.00;99.90;;;;;;5047241;28;20040;-74
2023/10/15 04:19:29;;;;;;;1.40;0.40;;;15.00;99.90;;;;;;5047504;28;20079;-74
2023/10/15 04:22:00;;;;;;;1.67;0.68;;;15.00;99.90;;;;;;5048602;28;20021;-74
2023/10/15 04:24:41;;;;;;;1.40;0.50;;;15.00;99.90;;;;;;5048686;28;20025;-75
2023/10/15 04:27:15;;;;;;;1.65;0.40;;;15.00;99.90;;;;;;5048777;28;20033;-74
2023/10/15 04:29:51;;;;;;;0.98;0.40;;;15.00;99.90;;;;;;5048701;28;20036;-75
2023/10/15 04:32:45;;;;;;;0.95;0.50;;;15.00;99.90;;;;;;5047270;28;20481;-75
2023/10/15 04:35:17;;;;;;;1.05;0.45;;;14.90;99.90;;;;;;5048590;28;20021;-75
2023/10/15 04:37:45;;;;;;;1.58;0.40;;;15.00;99.90;;;;;;5047271;28;20776;-74
2023/10/15 04:40:11;;;;;;;1.05;0.40;;;15.00;99.90;;;;;;5048479;28;20099;-75
2023/10/15 04:42:43;;;;;;;0.88;0.50;;;15.00;99.90;;;;;;5048271;28;20052;-74
2023/10/15 04:45:54;;;;;;;0.57;0.30;;;15.00;99.90;;;;;;5047504;28;20041;-74
2023/10/15 04:48:02;;;;;;;1.67;0.40;;;15.00;99.90;;;;;;5050643;28;20064;-75
2023/10/15 04:50:29;;;;;;;0.80;0.40;;;15.00;99.90;;;;;;5048458;28;20029;-75
2023/10/15 04:53:17;;;;;;;3.83;0.50;;;15.00;99.90;;;;;;5047066;28;20434;-74
2023/10/15 04:55:43;;;;;;;0.85;0.30;;;15.00;99.90;;;;;;5048442;28;20098;-74
2023/10/15 04:58:10;;;;;;;0.88;0.57;;;14.90;99.90;;;;;;5049309;28;20029;-75
2023/10/15 05:00:45;;;;;;;5.95;0.43;;;14.90;99.90;;;;;;5052329;28;20085;-73
2023/10/15 05:03:12;;;;;;;1.85;0.40;;;14.90;99.90;;;;;;5052266;28;20025;-75
2023/10/15 05:05:37;;;;;;;5.45;0.60;;;14.90;99.90;;;;;;5052310;28;20060;-74
2023/10/15 05:08:10;;;;;;;2.47;1.30;;;14.90;99.90;;;;;;5051952;28;20048;-74
2023/10/15 05:10:38;;;;;;;2.50;1.25;;;14.80;99.90;;;;;;5052018;28;20032;-74
2023/10/15 05:13:04;;;;;;;3.60;1.35;;;14.90;99.90;;;;;;5051893;28;20028;-74
2023/10/15 05:15:30;;;;;;;3.40;1.27;;;14.80;99.90;;;;;;5052280;28;20107;-75
2023/10/15 05:17:55;;;;;;;1.90;1.10;;;14.90;99.90;;;;;;5051768;28;20049;-76
2023/10/15 05:20:21;;;;;;;2.67;1.13;;;14.80;99.90;;;;;;5051903;28;20105;-74
2023/10/15 05:22:50;;;;;;;2.72;0.90;;;15.00;99.90;;;;;;5050591;28;20025;-75
2023/10/15 05:25:17;;;;;;;2.03;0.70;;;14.90;99.90;;;;;;5050480;28;20068;-74
2023/10/15 05:27:47;;;;;;;1.42;0.70;;;14.90;99.90;;;;;;5051781;28;20059;-74
2023/10/15 05:30:15;;;;;;;1.75;0.70;;;14.90;99.90;;;;;;5051672;28;20115;-74
2023/10/15 05:32:43;;;;;;;1.23;0.50;;;14.90;99.90;;;;;;5051605;28;20025;-74
2023/10/15 05:35:09;;;;;;;3.10;0.80;;;14.90;99.90;;;;;;5051732;28;20033;-75
2023/10/15 05:37:36;;;;;;;2.05;0.73;;;14.90;99.90;;;;;;5051630;28;20572;-75
2023/10/15 05:40:03;;;;;;;5.55;0.50;;;14.90;99.90;;;;;;5051491;28;20021;-74
2023/10/15 05:42:29;;;;;;;2.28;0.40;;;14.90;99.90;;;;;;5051345;28;20087;-75
2023/10/15 05:44:56;;;;;;;1.13;0.30;;;14.90;99.90;;;;;;5051439;28;20413;-74
2023/10/15 05:47:22;;;;;;;0.90;0.30;;;14.90;99.90;;;;;;5050105;28;20033;-74
2023/10/15 05:49:48;;;;;;;1.73;0.40;;;14.90;99.90;;;;;;5051403;28;20094;-75
2023/10/15 05:52:14;;;;;;;1.55;0.50;;;14.90;99.90;;;;;;5051234;28;20108;-74
2023/10/15 05:54:40;;;;;;;0.90;0.40;;;14.90;99.90;;;;;;5051152;28;20524;-74
2023/10/15 05:57:06;;;;;;;2.00;0.47;;;14.90;99.90;;;;;;5049828;28;20574;-75
2023/10/15 05:59:36;;;;;;;3.15;0.73;;;14.80;99.90;;;;;;5050002;28;20043;-74
2023/10/15 06:02:04;;;;;;;3.20;0.50;;;14.80;99.90;;;;;;5051092;28;20099;-74
2023/10/15 06:04:33;;;;;;;4.43;0.50;;;14.80;99.90;;;;;;5049829;28;20176;-73
2023/10/15 06:06:58;;;;;;;2.75;0.60;;;14.80;99.90;;;;;;5050943;28;20029;-74
2023/10/15 06:09:24;;;;;;;1.13;0.50;;;14.80;99.90;;;;;;5048952;28;20045;-75
2023/10/15 06:11:50;;;;;;;1.42;0.63;;;14.80;99.90;;;;;;5050767;28;20021;-75
2023/10/15 06:14:16;;;;;;;1.83;0.50;;;14.70;99.90;;;;;;5050653;28;20104;-74
2023/10/15 06:16:41;;;;;;;3.78;0.60;;;14.70;99.90;;;;;;5049151;28;20029;-75
2023/10/15 06:19:09;;;;;;;4.63;0.68;;;14.60;99.90;;;;;;5049494;28;20029;-75
2023/10/15 06:21:35;;;;;;;2.05;0.60;;;14.60;99.90;;;;;;5049346;28;20653;-75
2023/10/15 06:24:01;;;;;;;3.65;0.60;;;14.60;99.90;;;;;;5049436;28;20040;-74
2023/10/15 06:26:28;;;;;;;3.13;0.90;;;14.60;99.90;;;;;;5049351;28;20513;-75
2023/10/15 06:28:54;;;;;;;2.58;0.60;;;14.60;99.90;;;;;;5049304;28;20098;-75
2023/10/15 06:31:19;;;;;;;3.95;0.47;;;14.60;99.90;;;;;;5050548;28;20474;-74
2023/10/15 06:33:45;;;;;;;1.67;0.70;;;14.60;99.90;;;;;;5050479;28;20104;-75
2023/10/15 06:36:11;;;;;;;2.75;0.52;;;14.60;99.90;;;;;;5049133;28;20425;-74
2023/10/15 06:38:36;;;;;;;2.17;0.50;;;14.70;99.90;;;;;;5049157;28;20490;-74
2023/10/15 06:41:02;;;;;;;4.15;0.52;;;14.60;99.90;;;;;;5048940;28;20025;-74
2023/10/15 06:43:29;;;;;;;4.63;0.70;;;14.60;99.90;;;;;;5050246;28;20500;-74
2023/10/15 06:46:03;;;;;;;4.80;0.70;;;14.50;99.90;;;;;;5050939;28;20574;-75
2023/10/15 06:48:28;;;;;;;3.67;0.88;;;14.40;99.90;;;;;;5049347;28;20033;-75
2023/10/15 06:50:54;;;;;;;2.47;0.65;;;14.40;99.90;;;;;;5048662;28;20091;-75
2023/10/15 06:53:20;;;;;;;;;;;14.40;99.90;;;;;;5049002;28;20029;-75
2023/10/15 06:55:45;;;;;;;5.68;2.63;;;14.30;99.90;;;;;;5050073;28;20017;-75
2023/10/15 06:58:12;;;;;;;5.90;1.98;;;14.30;99.90;;;;;;5050107;28;20043;-75
2023/10/15 07:00:38;;;;;;;10.15;4.82;;;14.20;99.90;;;;;;5049996;28;20112;-74
2023/10/15 07:03:04;;;;;;;6.45;2.72;;;14.20;99.90;;;;;;5049931;28;20890;-75
2023/10/15 07:05:29;;;;;;;8.73;2.03;;;14.20;99.90;;;;;;5048559;28;20029;-75
2023/10/15 07:07:58;;;;;;;5.40;3.55;;;14.20;99.90;;;;;;5048620;28;20528;-75
2023/10/15 07:10:25;;;;;;;6.03;2.63;;;14.10;99.90;;;;;;5048469;28;20139;-74
2023/10/15 07:12:51;;;;;;;2.80;0.73;;;14.20;99.90;;;;;;5048582;28;20057;-76
2023/10/15 07:15:22;;;;;;;3.67;0.80;;;14.20;99.90;;;;;;5049765;28;20067;-73
2023/10/15 07:17:51;;;;;;;6.80;1.30;;;14.20;99.90;;;;;;5049561;28;20045;-76
2023/10/15 07:20:27;;;;;;;2.40;0.52;;;14.20;99.90;;;;;;5047944;28;20029;-75
2023/10/15 07:22:54;;;;;;;7.35;0.75;;;14.20;99.90;;;;;;5047911;28;20036;-75
2023/10/15 07:25:20;;;;;;;2.83;1.20;;;14.00;99.90;;;;;;5049602;28;20473;-74
2023/10/15 07:27:51;;;;;;;3.22;0.90;;;14.00;99.90;;;;;;5049482;28;20032;-74
2023/10/15 07:30:19;;;;;;;2.78;0.70;;;14.00;99.90;;;;;;5048364;28;20122;-75
2023/10/15 07:32:46;;;;;;;6.55;0.70;;;13.90;99.90;;;;;;5048033;28;20079;-74
2023/10/15 07:35:15;;;;;;;1.95;0.60;;;14.00;99.90;;;;;;5048249;28;20032;-74
2023/10/15 07:37:43;;;;;;;4.18;0.75;;;13.90;99.90;;;;;;5049383;28;20056;-75
2023/10/15 07:40:16;;;;;;;3.28;0.70;;;13.90;99.90;;;;;;5047883;28;20531;-75
2023/10/15 07:42:44;;;;;;;3.45;0.77;;;13.90;99.90;;;;;;5048003;28;20036;-74
2023/10/15 07:45:10;;;;;;;3.83;0.95;;;14.00;99.90;;;;;;5049195;28;20120;-73
2023/10/15 07:47:38;;;;;;;4.72;0.90;;;14.10;99.90;;;;;;5049061;28;20086;-73
2023/10/15 07:50:09;;;;;;;7.32;3.75;;;14.10;99.90;;;;;;5049105;28;20075;-75
2023/10/15 07:52:35;;;;;;;9.35;1.80;;;14.10;99.90;;;;;;5049067;28;20029;-74
2023/10/15 07:55:01;;;;;;;4.47;1.70;;;14.00;99.90;;;;;;5047651;28;20025;-74
2023/10/15 07:57:27;;;;;;;3.17;1.55;;;14.10;99.90;;;;;;5049013;28;20040;-73
2023/10/15 07:59:58;;;;;;;12.32;5.38;;;14.20;99.90;;;;;;5047732;28;20025;-74
2023/10/15 08:02:27;;;;;;;29.65;12.25;;;14.30;99.90;;;;;;5049042;28;20029;-75
2023/10/15 08:04:56;;;;;;;66.78;25.17;;;14.40;99.90;;;;;;5047662;28;20108;-74
2023/10/15 08:07:23;;;;;;;41.50;15.50;;;14.40;99.90;;;;;;5048788;28;20038;-75
2023/10/15 08:09:52;;;;;;;20.52;8.48;;;14.30;99.90;;;;;;5048623;28;20470;-74
2023/10/15 08:12:18;;;;;;;18.05;5.95;;;14.30;99.90;;;;;;5048668;28;20086;-74
2023/10/15 08:14:45;;;;;;;8.98;2.88;;;14.40;99.90;;;;;;5048780;28;20032;-74
2023/10/15 08:17:12;;;;;;;6.07;2.05;;;14.40;99.90;;;;;;5048576;28;20045;-73
2023/10/15 08:19:38;;;;;;;5.38;1.75;;;14.40;99.90;;;;;;5048675;28;20032;-75
2023/10/15 08:22:03;;;;;;;2.80;0.90;;;14.50;99.90;;;;;;5048535;28;20029;-74
2023/10/15 08:24:29;;;;;;;3.10;0.73;;;14.50;99.90;;;;;;5048557;28;20064;-74
2023/10/15 08:26:55;;;;;;;4.28;1.20;;;14.50;99.90;;;;;;5048645;28;20051;-74
2023/10/15 08:29:20;;;;;;;8.93;1.30;;;14.50;99.90;;;;;;5047024;28;20044;-74
2023/10/15 08:31:47;;;;;;;2.80;1.02;;;14.50;99.90;;;;;;5047655;28;20051;-75
2023/10/15 08:34:12;;;;;;;5.40;0.90;;;14.40;99.90;;;;;;5055309;28;20136;-75
2023/10/15 08:36:39;;;;;;;5.13;1.40;;;14.40;99.90;;;;;;5055177;28;20532;-74
2023/10/15 08:39:06;;;;;;;13.60;1.15;;;14.40;99.90;;;;;;5055203;28;20029;-74
2023/10/15 08:41:38;;;;;;;6.57;1.23;;;14.30;99.90;;;;;;5053754;28;20037;-74
2023/10/15 08:44:09;;;;;;;4.80;1.30;;;14.40;99.90;;;;;;5053946;28;20028;-74
2023/10/15 08:46:39;;;;;;;9.23;1.90;;;14.40;99.90;;;;;;5055169;28;20059;-74
2023/10/15 08:49:08;;;;;;;6.10;1.20;;;14.30;99.90;;;;;;5054924;28;20047;-75
2023/10/15 08:51:36;;;;;;;4.18;1.35;;;14.30;99.90;;;;;;5053783;28;20119;-74
2023/10/15 08:54:03;;;;;;;3.95;0.85;;;14.40;99.90;;;;;;5053664;28;20025;-74
2023/10/15 08:56:32;;;;;;;4.82;0.90;;;14.40;99.90;;;;;;5053699;28;20516;-74
2023/10/15 08:58:59;;;;;;;5.10;1.20;;;14.50;99.90;;;;;;5055032;28;20433;-74
2023/10/15 09:01:26;;;;;;;5.22;0.95;;;14.40;99.90;;;;;;5053567;28;20048;-74
2023/10/15 09:03:54;;;;;;;4.05;1.05;;;14.50;99.90;;;;;;5054837;28;20028;-74
2023/10/15 09:06:20;;;;;;;6.03;1.88;;;14.60;99.90;;;;;;5053623;28;20028;-75
2023/10/15 09:08:46;;;;;;;9.80;2.58;;;14.60;99.90;;;;;;5053821;28;20043;-74
2023/10/15 09:11:13;;;;;;;7.28;2.00;;;14.70;99.90;;;;;;5054834;28;20116;-73
2023/10/15 09:13:39;;;;;;;4.22;1.33;;;14.80;99.90;;;;;;5054533;28;20036;-74
2023/10/15 09:16:06;;;;;;;3.30;1.10;;;14.70;99.90;;;;;;5054744;28;20017;-73
2023/10/15 09:18:35;;;;;;;5.97;0.95;;;14.80;99.90;;;;;;5053288;28;20135;-75
2023/10/15 09:21:05;;;;;;;3.88;0.90;;;14.90;99.90;;;;;;5054914;28;20025;-74
2023/10/15 09:23:35;;;;;;;2.63;0.50;;;14.90;99.90;;;;;;5054743;28;20059;-73
2023/10/15 09:26:02;;;;;;;1.70;0.63;;;15.00;99.90;;;;;;5053475;28;20025;-75
2023/10/15 09:28:28;;;;;;;2.42;0.90;;;15.00;99.90;;;;;;5053215;28;20593;-74
2023/10/15 09:31:04;;;;;;;4.22;1.02;;;15.20;99.90;;;;;;5054615;28;20550;-74
2023/10/15 09:33:31;;;;;;;5.10;0.98;;;15.30;99.90;;;;;;5053287;28;20028;-74
2023/10/15 09:35:57;;;;;;;5.57;1.30;;;15.30;99.90;;;;;;5054722;28;20033;-75
2023/10/15 09:38:23;;;;;;;5.13;1.20;;;15.40;99.90;;;;;;5054614;28;20051;-74
2023/10/15 09:40:49;;;;;;;4.90;1.35;;;15.40;99.90;;;;;;5053437;28;20032;-75
2023/10/15 09:43:15;;;;;;;3.08;0.95;;;15.50;99.90;;;;;;5052643;28;20545;-75
2023/10/15 09:45:42;;;;;;;3.88;1.00;;;15.50;99.90;;;;;;5049306;28;20064;-75
2023/10/15 09:48:09;;;;;;;4.45;1.30;;;15.50;99.90;;;;;;5051387;28;20663;-76
2023/10/15 09:50:38;;;;;;;9.25;1.10;;;15.50;99.90;;;;;;5051395;28;20120;-75
2023/10/15 09:53:11;;;;;;;5.43;1.13;;;15.40;99.90;;;;;;5049909;28;20036;-75
2023/10/15 09:55:41;;;;;;;4.85;1.08;;;15.40;99.90;;;;;;5051298;28;20036;-75
2023/10/15 09:58:10;;;;;;;5.15;1.52;;;15.40;99.90;;;;;;5051114;28;20481;-76
2023/10/15 10:00:47;;;;;;;8.43;0.85;;;15.50;99.90;;;;;;5049862;28;20119;-75
2023/10/15 10:03:25;;;;;;;4.57;0.88;;;15.50;99.90;;;;;;5051045;28;20025;-75
2023/10/15 10:06:09;;;;;;;4.97;1.50;;;15.60;99.90;;;;;;5051009;28;20040;-76
2023/10/15 10:08:56;;;;;;;7.47;1.85;;;15.70;99.80;;;;;;5047563;28;20029;-75
2023/10/15 10:11:35;;;;;;;4.55;1.00;;;15.80;98.10;;;;;;5049424;28;20036;-74
2023/10/15 10:14:26;;;;;;;3.63;0.68;;;15.60;96.20;;;;;;5050870;28;20070;-74
2023/10/15 10:16:53;;;;;;;5.60;1.30;;;15.50;97.20;;;;;;5049355;28;20406;-76
2023/10/15 10:19:19;;;;;;;3.88;1.27;;;15.50;98.00;;;;;;5050576;28;20033;-76
2023/10/15 10:21:47;;;;;;;4.28;1.25;;;15.60;99.00;;;;;;5050829;28;20112;-75
2023/10/15 10:24:16;;;;;;;3.58;0.80;;;15.80;99.50;;;;;;5050851;28;20029;-75
2023/10/15 10:26:42;;;;;;;4.85;0.80;;;15.70;98.10;;;;;;5049299;28;20524;-75
2023/10/15 10:29:09;;;;;;;4.90;1.00;;;15.80;98.30;;;;;;5050609;28;20033;-75
2023/10/15 10:31:36;;;;;;;5.75;1.50;;;15.70;98.70;;;;;;5050624;28;20490;-75
2023/10/15 10:34:03;;;;;;;6.90;1.73;;;15.80;97.20;;;;;;5049335;28;20502;-75
2023/10/15 10:36:30;;;;;;;7.38;2.95;;;15.80;95.60;;;;;;5050507;28;20036;-75
2023/10/15 10:38:56;;;;;;;18.92;6.07;;;15.70;96.00;;;;;;5049247;28;20060;-75
2023/10/15 10:41:33;;;;;;;8.60;2.30;;;15.70;95.70;;;;;;5050519;28;20075;-75
2023/10/15 10:43:59;;;;;;;6.90;1.70;;;15.90;94.20;;;;;;5050471;28;20025;-75
2023/10/15 10:46:24;;;;;;;8.25;1.95;;;16.00;92.90;;;;;;5050757;28;20749;-76
2023/10/15 10:49:09;;;;;;;6.07;1.30;;;16.00;92.30;;;;;;5048841;28;20447;-75
2023/10/15 10:51:35;;;;;;;7.20;0.70;;;16.00;92.50;;;;;;5048888;28;20036;-75
2023/10/15 10:54:03;;;;;;;4.13;0.70;;;16.00;91.90;;;;;;5050380;28;20021;-74
2023/10/15 10:56:41;;;;;;;4.18;1.35;;;16.00;91.20;;;;;;5049969;28;20048;-75
2023/10/15 10:59:07;;;;;;;3.20;0.70;;;15.80;92.50;;;;;;5049889;28;20051;-75
2023/10/15 11:01:37;;;;;;;9.80;0.80;;;15.90;93.30;;;;;;5048662;28;20406;-75
2023/10/15 11:04:04;;;;;;;3.28;0.80;;;15.90;92.40;;;;;;5048683;28;20778;-75
2023/10/15 11:06:32;;;;;;;5.13;0.95;;;15.90;92.90;;;;;;5049967;28;20060;-75
2023/10/15 11:08:58;;;;;;;3.88;0.70;;;15.80;92.50;;;;;;5049780;28;20079;-75
2023/10/15 11:11:24;;;;;;;3.17;0.90;;;15.80;92.10;;;;;;5048271;28;20029;-75
2023/10/15 11:13:50;;;;;;;5.80;1.23;;;15.90;93.10;;;;;;5048435;28;20029;-75
2023/10/15 11:16:16;;;;;;;5.75;0.90;;;15.80;92.10;;;;;;5048633;28;20029;-75
2023/10/15 11:18:45;;;;;;;4.55;0.85;;;15.90;91.80;;;;;;5049620;28;20049;-75
2023/10/15 11:21:11;;;;;;;6.18;1.13;;;16.00;91.90;;;;;;5048430;28;20523;-75
2023/10/15 11:23:38;;;;;;;2.88;0.75;;;16.10;91.40;;;;;;5049600;28;20473;-75
2023/10/15 11:26:04;;;;;;;2.88;0.77;;;16.30;88.60;;;;;;5049677;28;20025;-75
2023/10/15 11:28:30;;;;;;;5.55;0.73;;;16.30;88.30;;;;;;5048089;28;20021;-75
2023/10/15 11:30:57;;;;;;;5.63;1.73;;;16.30;90.70;;;;;;5048061;28;20044;-75
2023/10/15 11:33:23;;;;;;;5.00;1.50;;;16.30;90.30;;;;;;5048157;28;20025;-75
2023/10/15 11:35:49;;;;;;;4.65;1.00;;;16.20;90.20;;;;;;5049236;28;20032;-75
2023/10/15 11:38:15;;;;;;;3.95;0.82;;;16.20;91.00;;;;;;5049269;28;20028;-75
2023/10/15 11:40:41;;;;;;;4.97;1.00;;;16.20;91.20;;;;;;5048397;28;20071;-75
2023/10/15 11:43:25;;;;;;;3.17;0.80;;;16.20;90.50;;;;;;5047947;28;20028;-75
2023/10/15 11:45:59;;;;;;;4.38;1.00;;;16.20;89.80;;;;;;5049273;28;20539;-76
2023/10/15 11:48:26;;;;;;;2.60;0.50;;;16.30;88.10;;;;;;5049169;28;20485;-75
2023/10/15 11:50:52;;;;;;;4.32;0.60;;;16.30;87.30;;;;;;5049115;28;20044;-76
2023/10/15 11:53:21;;;;;;;5.63;0.65;;;16.20;84.50;;;;;;5048998;28;20032;-76
2023/10/15 11:55:47;;;;;;;6.70;1.00;;;16.30;87.40;;;;;;5049074;28;20520;-75
2023/10/15 11:58:19;;;;;;;4.78;1.02;;;16.30;87.40;;;;;;5049851;28;20478;-76
2023/10/15 12:00:48;;;;;;;2.65;0.60;;;16.40;86.30;;;;;;5047662;28;20025;-76
2023/10/15 12:03:16;;;;;;;4.35;0.90;;;16.30;85.00;;;;;;5047742;28;20025;-75
2023/10/15 12:05:42;;;;;;;4.65;0.90;;;16.40;85.60;;;;;;5049044;28;20029;-76
2023/10/15 12:08:12;;;;;;;9.13;1.05;;;16.30;85.00;;;;;;5048352;28;20059;-75
2023/10/15 12:10:43;;;;;;;5.13;0.98;;;16.30;84.60;;;;;;5048772;28;20489;-75
2023/10/15 12:13:11;;;;;;;4.97;0.82;;;16.20;83.10;;;;;;5047566;28;20028;-76
2023/10/15 12:15:37;;;;;;;4.95;1.35;;;16.30;83.30;;;;;;5047562;28;20795;-75
2023/10/15 12:18:03;;;;;;;5.85;1.63;;;16.30;84.50;;;;;;5047273;28;20055;-75
2023/10/15 12:20:29;;;;;;;6.78;1.27;;;16.40;85.00;;;;;;5047327;28;20037;-75
2023/10/15 12:22:55;;;;;;;5.70;0.90;;;16.20;83.80;;;;;;5048471;28;20039;-76
2023/10/15 12:25:21;;;;;;;3.55;0.88;;;16.10;84.10;;;;;;5047299;28;20057;-75
2023/10/15 12:27:47;;;;;;;3.13;0.68;;;16.10;84.30;;;;;;5048306;28;20040;-75
2023/10/15 12:30:27;;;;;;;5.90;1.05;;;16.00;83.30;;;;;;5048370;28;20029;-75
2023/10/15 12:32:58;;;;;;;2.58;0.80;;;15.90;84.20;;;;;;5048380;28;20481;-75
2023/10/15 12:35:31;;;;;;;4.43;0.88;;;15.90;84.00;;;;;;5048399;28;20025;-76
2023/10/15 12:38:02;;;;;;;3.10;0.60;;;15.80;85.10;;;;;;5048614;28;20025;-74
2023/10/15 12:40:32;;;;;;;4.88;0.68;;;15.80;85.90;;;;;;5047309;28;20119;-76
2023/10/15 12:42:59;;;;;;;2.35;0.50;;;15.80;85.40;;;;;;5047109;28;20033;-75
2023/10/15 12:45:25;;;;;;;5.15;0.70;;;15.80;84.20;;;;;;5048411;28;20397;-75
2023/10/15 12:47:51;;;;;;;2.83;0.60;;;15.70;83.10;;;;;;5048478;28;20029;-74
2023/10/15 12:50:17;;;;;;;2.45;0.60;;;15.60;82.00;;;;;;5046940;28;20033;-76
2023/10/15 12:52:47;;;;;;;2.47;0.80;;;15.60;81.50;;;;;;5047358;28;20096;-75
2023/10/15 12:55:18;;;;;;;4.90;0.70;;;15.60;83.70;;;;;;5048451;28;20025;-74
2023/10/15 12:57:46;;;;;;;5.43;0.95;;;15.60;84.70;;;;;;5047205;28;20401;-76
2023/10/15 13:00:18;;;;;;;3.33;0.60;;;15.60;84.80;;;;;;5046980;28;20032;-75
2023/10/15 13:02:53;;;;;;;3.95;0.55;;;15.60;85.30;;;;;;5047050;28;20093;-75
2023/10/15 13:05:20;;;;;;;3.88;0.88;;;15.50;84.60;;;;;;5048351;28;20037;-75